Time;durP1;ratioP1;P1;durP2;ratioP2;P2;SDS_P1;SDS_P2;PMS_P1;PMS_P2;Temp;Humidity;BMP_temperature;BMP_pressure;BME280_temperature;BME280_humidity;BME280_pressure;Samples;Min_cycle;Max_cycle;Signal;HPM_P1;HPM_P2
2022/09/18 00:01:00;;;;;;;6.45;1.33;;;8.40;99.90;;;7.71;100.00;97297.28;5055106;28;20063;-44
2022/09/18 00:03:27;;;;;;;4.70;1.40;;;8.40;99.90;;;7.69;100.00;97291.22;5063502;28;20024;-46
2022/09/18 00:05:53;;;;;;;5.05;1.30;;;8.40;99.90;;;7.75;100.00;97298.94;5071265;28;20058;-44
2022/09/18 00:08:19;;;;;;;4.30;1.50;;;8.40;99.90;;;7.71;100.00;97305.16;5065499;28;20500;-46
2022/09/18 00:10:47;;;;;;;5.97;1.33;;;8.40;99.90;;;7.72;100.00;97296.41;5059949;28;20051;-43
2022/09/18 00:13:14;;;;;;;6.35;1.45;;;8.40;99.90;;;7.71;100.00;97293.81;5052871;28;20056;-44
2022/09/18 00:15:40;;;;;;;5.53;1.27;;;8.40;99.90;;;7.72;100.00;97288.53;5054438;28;20226;-48
2022/09/18 00:18:07;;;;;;;5.85;1.50;;;8.40;99.90;;;7.69;100.00;97293.84;5058010;28;20059;-45
2022/09/18 00:20:34;;;;;;;7.57;1.98;;;8.40;99.90;;;7.74;100.00;97289.34;5055589;28;20043;-45
2022/09/18 00:23:00;;;;;;;5.10;1.13;;;8.40;99.90;;;7.73;100.00;97297.25;5035520;28;20641;-44
2022/09/18 00:25:26;;;;;;;5.43;1.58;;;8.40;99.90;;;7.74;100.00;97291.97;5041610;28;20044;-43
2022/09/18 00:27:52;;;;;;;5.20;1.48;;;8.40;99.90;;;7.76;100.00;97300.66;5062255;28;20655;-42
2022/09/18 00:30:17;;;;;;;7.13;2.03;;;8.40;99.90;;;7.75;100.00;97292.81;5078343;28;20089;-44
2022/09/18 00:32:43;;;;;;;7.63;1.77;;;8.40;99.90;;;7.71;100.00;97307.78;5069868;28;20404;-43
2022/09/18 00:35:09;;;;;;;9.10;1.77;;;8.40;99.90;;;7.73;100.00;97308.59;5046346;28;20085;-47
2022/09/18 00:37:35;;;;;;;6.53;1.30;;;8.40;99.90;;;7.72;100.00;97301.66;5050714;28;20028;-42
2022/09/18 00:40:01;;;;;;;8.82;1.80;;;8.40;99.90;;;7.77;100.00;97307.66;5063504;28;20714;-45
2022/09/18 00:42:26;;;;;;;3.85;1.63;;;8.40;99.90;;;7.77;100.00;97302.38;5048706;28;20103;-44
2022/09/18 00:44:52;;;;;;;5.10;1.45;;;8.40;99.90;;;7.78;100.00;97303.25;5057611;28;20035;-46
2022/09/18 00:47:42;;;;;;;4.60;1.60;;;8.40;99.90;;;7.79;100.00;97303.19;5063313;28;20028;-44
2022/09/18 00:50:24;;;;;;;4.10;1.73;;;8.40;99.90;;;7.76;100.00;97308.53;5066183;28;20040;-46
2022/09/18 00:53:00;;;;;;;6.68;2.03;;;8.40;99.90;;;7.78;100.00;97303.25;5049610;28;20035;-46
2022/09/18 00:55:32;;;;;;;4.78;1.50;;;8.40;99.90;;;7.76;100.00;97305.91;5064688;28;20039;-47
2022/09/18 00:58:01;;;;;;;7.28;1.55;;;8.40;99.90;;;7.72;100.00;97301.66;5046896;28;20575;-45
2022/09/18 01:00:28;;;;;;;4.57;1.50;;;8.40;99.90;;;7.72;100.00;97304.28;5053166;28;20032;-47
2022/09/18 01:02:54;;;;;;;5.82;1.40;;;8.40;99.90;;;7.72;100.00;97304.28;5062555;28;20028;-46
2022/09/18 01:05:56;;;;;;;7.50;1.60;;;8.40;99.90;;;7.71;100.00;97299.91;5060510;28;20096;-48
2022/09/18 01:08:30;;;;;;;6.07;1.60;;;8.40;99.90;;;7.69;100.00;97303.50;5066171;28;20035;-42
2022/09/18 01:11:24;;;;;;;3.42;1.48;;;8.40;99.90;;;7.72;100.00;97304.28;5052759;28;20143;-45
2022/09/18 01:14:22;;;;;;;5.28;1.67;;;8.30;99.90;;;7.70;100.00;97307.81;5071616;28;20370;-46
2022/09/18 01:16:59;;;;;;;3.40;1.50;;;8.30;99.90;;;7.72;100.00;97308.69;5056243;28;20040;-46
2022/09/18 01:20:01;;;;;;;5.80;1.73;;;8.30;99.90;;;7.76;100.00;97310.31;5063206;22;20220;-38
2022/09/18 01:22:43;;;;;;;7.32;1.88;;;8.40;99.90;;;7.79;100.00;97307.59;5033686;28;20033;-38
2022/09/18 01:25:34;;;;;;;4.57;1.63;;;8.50;99.90;;;7.82;100.00;97315.38;5050658;28;20042;-38
2022/09/18 01:28:40;;;;;;;5.00;1.20;;;8.50;99.90;;;7.79;100.00;97320.72;5051852;28;20084;-38
2022/09/18 01:31:19;;;;;;;3.97;1.25;;;8.50;99.90;;;7.81;100.00;97316.28;4986682;28;20053;-38
2022/09/18 01:34:06;;;;;;;6.53;1.50;;;8.50;99.90;;;7.74;100.00;97315.59;5025417;28;20037;-37
2022/09/18 01:36:38;;;;;;;6.50;1.75;;;8.40;99.90;;;7.78;100.00;97316.38;5009138;28;20137;-38
2022/09/18 01:39:10;;;;;;;;;;;8.40;99.90;;;7.77;100.00;97318.13;5007520;28;20045;-38
2022/09/18 01:41:39;;;;;;;6.15;1.52;;;8.40;99.90;;;7.75;100.00;97304.19;5003466;28;19963;-38
2022/09/18 01:44:12;;;;;;;4.38;1.00;;;8.40;99.90;;;7.78;100.00;97300.63;5004274;28;20067;-38
2022/09/18 01:46:41;;;;;;;5.93;1.13;;;8.40;99.90;;;7.77;100.00;97302.38;5001702;28;20164;-38
2022/09/18 01:49:12;;;;;;;6.03;1.35;;;8.40;99.90;;;7.74;100.00;97305.09;5008262;28;20037;-38
2022/09/18 01:51:55;;;;;;;4.72;1.30;;;8.40;99.90;;;7.74;100.00;97304.25;5005086;28;20029;-38
2022/09/18 01:54:26;;;;;;;4.80;1.42;;;8.40;99.90;;;7.69;100.00;97293.84;5008357;28;20104;-38
2022/09/18 01:57:20;;;;;;;2.85;1.25;;;8.40;99.90;;;7.75;100.00;97296.31;5009779;28;20398;-38
2022/09/18 01:59:59;;;;;;;7.32;1.40;;;8.40;99.90;;;7.72;100.00;97300.78;5008578;28;20037;-38
2022/09/18 02:02:43;;;;;;;2.72;1.00;;;8.40;99.90;;;7.74;100.00;97291.13;5024240;28;20620;-38
2022/09/18 02:05:15;;;;;;;5.05;1.30;;;8.40;99.90;;;7.71;100.00;97289.41;5010906;28;20033;-38
2022/09/18 02:08:15;;;;;;;5.47;1.17;;;8.40;99.90;;;7.72;100.00;97287.69;5020779;28;20037;-38
2022/09/18 02:10:50;;;;;;;3.30;1.17;;;8.40;99.90;;;7.70;100.00;97282.47;5012170;28;20029;-38
2022/09/18 02:13:22;;;;;;;6.72;1.23;;;8.40;99.90;;;7.73;100.00;97286.75;5009308;28;20120;-38
2022/09/18 02:15:49;;;;;;;5.03;1.30;;;8.40;99.90;;;7.73;100.00;97290.22;5020342;28;20029;-38
2022/09/18 02:18:23;;;;;;;9.23;1.65;;;8.40;99.90;;;7.74;100.00;97286.72;5003912;28;20138;-38
2022/09/18 02:20:50;;;;;;;6.55;1.48;;;8.40;99.90;;;7.75;100.00;97287.56;5002822;28;20033;-38
2022/09/18 02:23:16;;;;;;;4.43;1.13;;;8.40;99.90;;;7.75;100.00;97288.44;5006700;28;20029;-38
2022/09/18 02:25:48;;;;;;;5.35;1.25;;;8.40;99.90;;;7.78;100.00;97283.09;5002870;28;20085;-38
2022/09/18 02:28:18;;;;;;;6.45;1.50;;;8.50;99.90;;;7.73;100.00;97274.47;4998944;28;20021;-38
2022/09/18 02:30:44;;;;;;;5.13;1.00;;;8.40;99.90;;;7.79;100.00;97282.19;5005673;28;20528;-38
2022/09/18 02:33:29;;;;;;;3.17;1.25;;;8.50;99.90;;;7.87;100.00;97278.50;4998985;28;20037;-38
2022/09/18 02:36:21;;;;;;;3.33;1.15;;;8.50;99.90;;;7.86;100.00;97279.41;5008044;28;20093;-38
2022/09/18 02:39:09;;;;;;;3.47;1.10;;;8.50;99.90;;;7.88;100.00;97281.09;5022688;28;20028;-38
2022/09/18 02:42:13;;;;;;;4.45;1.00;;;8.50;99.90;;;7.88;100.00;97267.97;5000476;28;20060;-38
2022/09/18 02:45:19;;;;;;;5.10;1.15;;;8.50;99.90;;;7.64;100.00;97238.00;4993544;28;20493;-38
2022/09/18 02:47:58;;;;;;;4.78;1.13;;;8.50;99.90;;;7.84;100.00;97275.06;5002419;28;20209;-38
2022/09/18 02:51:21;;;;;;;4.78;1.13;;;8.50;99.90;;;7.83;100.00;97277.72;5003703;28;20246;-38
2022/09/18 02:53:56;;;;;;;4.82;1.25;;;8.50;99.90;;;7.84;100.00;97282.06;4981563;28;20049;-38
2022/09/18 02:56:34;;;;;;;2.58;1.00;;;8.50;99.90;;;7.82;100.00;97281.25;5003204;28;20132;-38
2022/09/18 02:59:09;;;;;;;7.95;1.65;;;8.50;99.90;;;7.82;100.00;97282.13;5024485;28;20041;-38
2022/09/18 03:01:38;;;;;;;2.10;0.90;;;8.50;99.90;;;7.80;100.00;97281.28;5000271;28;20040;-38
2022/09/18 03:04:10;;;;;;;2.45;1.05;;;8.50;99.90;;;7.80;100.00;97277.81;5017917;28;20119;-38
2022/09/18 03:06:35;;;;;;;4.97;1.20;;;8.50;99.90;;;7.78;100.00;97284.88;5001634;28;20029;-38
2022/09/18 03:09:01;;;;;;;5.90;1.17;;;8.50;99.90;;;7.80;100.00;97270.78;5014227;28;20044;-38
2022/09/18 03:11:27;;;;;;;3.30;1.05;;;8.50;99.90;;;7.64;100.00;97244.13;5006921;28;20033;-38
2022/09/18 03:13:53;;;;;;;3.30;1.17;;;8.40;99.90;;;7.61;100.00;97244.19;5004925;28;20547;-38
2022/09/18 03:16:19;;;;;;;1.98;0.90;;;8.40;99.90;;;7.66;100.00;97262.44;5001342;28;20152;-38
2022/09/18 03:18:44;;;;;;;3.08;1.05;;;8.40;99.90;;;7.53;100.00;97250.56;5004464;28;20060;-38
2022/09/18 03:21:10;;;;;;;2.55;0.90;;;8.40;99.90;;;7.65;100.00;97266.81;5004838;28;20406;-38
2022/09/18 03:23:36;;;;;;;4.32;1.13;;;8.30;99.90;;;7.63;100.00;97268.63;5002242;28;20033;-38
2022/09/18 03:26:01;;;;;;;2.83;0.93;;;8.30;99.90;;;7.65;100.00;97272.06;4995157;28;20555;-38
2022/09/18 03:28:30;;;;;;;1.73;1.00;;;8.30;99.90;;;7.65;100.00;97261.56;5003899;28;20049;-38
2022/09/18 03:30:56;;;;;;;2.47;1.13;;;8.30;99.90;;;7.63;100.00;97259.91;4994103;28;20032;-38
2022/09/18 03:33:22;;;;;;;7.13;1.40;;;8.30;99.90;;;7.65;100.00;97258.09;5001141;28;20160;-38
2022/09/18 03:35:47;;;;;;;3.20;1.23;;;8.30;99.90;;;7.64;100.00;97259.00;5000754;28;20032;-38
2022/09/18 03:38:14;;;;;;;2.40;1.20;;;8.30;99.90;;;7.64;100.00;97259.88;5001075;28;20455;-38
2022/09/18 03:40:44;;;;;;;4.18;1.45;;;8.30;99.90;;;7.70;100.00;97252.69;5003705;28;20065;-38
2022/09/18 03:43:10;;;;;;;5.60;1.27;;;8.30;99.90;;;7.69;100.00;97258.88;4998056;28;20025;-38
2022/09/18 03:45:35;;;;;;;2.80;1.13;;;8.30;99.90;;;7.69;100.00;97257.09;4999180;28;20068;-38
2022/09/18 03:48:02;;;;;;;2.67;1.13;;;8.30;99.90;;;7.70;100.00;97255.31;5000090;28;20029;-38
2022/09/18 03:50:28;;;;;;;1.83;1.00;;;8.40;99.90;;;7.70;100.00;97258.84;4995070;28;20039;-38
2022/09/18 03:52:54;;;;;;;4.22;1.00;;;8.30;99.90;;;7.70;100.00;97260.56;5000520;28;20076;-38
2022/09/18 03:55:21;;;;;;;2.78;1.15;;;8.40;99.90;;;7.76;100.00;97276.19;4997094;28;20578;-38
2022/09/18 03:57:48;;;;;;;3.13;0.93;;;8.40;99.90;;;7.74;100.00;97270.97;5005266;28;20030;-38
2022/09/18 04:00:15;;;;;;;2.65;1.15;;;8.40;99.90;;;7.79;100.00;97268.22;4992729;28;20399;-38
2022/09/18 04:02:41;;;;;;;2.30;1.10;;;8.40;99.90;;;7.80;100.00;97275.19;4995966;28;20056;-38
2022/09/18 04:05:09;;;;;;;1.80;1.00;;;8.50;99.90;;;7.80;100.00;97278.66;4997753;28;20060;-38
2022/09/18 04:07:35;;;;;;;4.30;1.05;;;8.50;99.90;;;7.82;100.00;97279.50;4998041;28;20037;-38
2022/09/18 04:10:01;;;;;;;3.92;1.40;;;8.50;99.90;;;7.80;100.00;97276.03;5005175;28;20437;-38
2022/09/18 04:12:27;;;;;;;3.13;1.08;;;8.50;99.90;;;7.83;100.00;97283.81;5011444;28;20029;-38
2022/09/18 04:14:56;;;;;;;1.58;0.95;;;8.50;99.90;;;7.82;100.00;97282.13;5005402;28;20076;-38
2022/09/18 04:17:21;;;;;;;5.22;1.20;;;8.50;99.90;;;7.84;100.00;97279.44;4995565;28;20025;-38
2022/09/18 04:19:47;;;;;;;3.10;1.27;;;8.50;99.90;;;7.83;100.00;97289.09;4996510;28;20032;-38
2022/09/18 04:22:13;;;;;;;2.78;1.02;;;8.50;99.90;;;7.85;100.00;97286.41;4998283;28;20044;-37
2022/09/18 04:24:39;;;;;;;4.53;1.40;;;8.50;99.90;;;7.82;100.00;97273.38;5001271;28;20992;-39
2022/09/18 04:27:06;;;;;;;3.63;1.08;;;8.50;99.90;;;7.81;100.00;97269.88;5005156;28;20112;-38
2022/09/18 04:29:32;;;;;;;3.85;1.20;;;8.50;99.90;;;7.88;100.00;97283.72;5000416;28;20077;-38
2022/09/18 04:31:58;;;;;;;2.47;1.00;;;8.50;99.90;;;7.90;100.00;97287.16;5002302;28;20573;-38
2022/09/18 04:34:24;;;;;;;2.55;1.17;;;8.50;99.90;;;7.82;100.00;97276.00;5004404;28;20037;-38
2022/09/18 04:36:49;;;;;;;3.67;1.40;;;8.60;99.90;;;7.88;100.00;97282.84;5002565;28;20114;-39
2022/09/18 04:39:15;;;;;;;5.30;1.65;;;8.50;99.90;;;7.86;100.00;97277.66;5002341;28;20033;-38
2022/09/18 04:41:41;;;;;;;2.97;1.10;;;8.50;99.90;;;7.67;100.00;97255.44;4998717;28;20129;-38
2022/09/18 04:44:06;;;;;;;3.08;1.10;;;8.50;99.90;;;7.85;100.00;97283.78;4998497;28;20501;-39
2022/09/18 04:46:32;;;;;;;3.92;1.38;;;8.50;99.90;;;7.86;100.00;97284.66;5004682;28;20510;-39
2022/09/18 04:48:58;;;;;;;3.55;1.10;;;8.50;99.90;;;7.84;100.00;97272.44;5000142;28;20124;-38
2022/09/18 04:51:24;;;;;;;2.83;1.27;;;8.50;99.90;;;7.83;100.00;97283.81;4995064;28;20684;-38
2022/09/18 04:53:50;;;;;;;3.83;1.17;;;8.50;99.90;;;7.78;100.00;97269.13;4996645;28;20048;-38
2022/09/18 04:56:15;;;;;;;1.88;1.10;;;8.50;99.90;;;7.83;100.00;97281.19;4999012;28;20048;-38
2022/09/18 04:58:41;;;;;;;3.80;1.20;;;8.50;99.90;;;7.83;100.00;97282.97;4999013;28;20037;-38
2022/09/18 05:01:07;;;;;;;5.93;1.40;;;8.50;99.90;;;7.85;100.00;97281.16;5004830;28;20123;-38
2022/09/18 05:03:33;;;;;;;3.65;1.42;;;8.50;99.90;;;7.83;100.00;97281.19;5001029;28;20072;-39
2022/09/18 05:05:59;;;;;;;1.40;1.10;;;8.50;99.90;;;7.88;100.00;97282.84;4994540;28;20037;-38
2022/09/18 05:08:26;;;;;;;2.60;1.30;;;8.50;99.90;;;7.88;100.00;97282.84;5004195;28;20021;-38
2022/09/18 05:10:52;;;;;;;5.10;1.35;;;8.50;99.90;;;7.88;100.00;97288.97;5016400;28;20446;-38
2022/09/18 05:13:18;;;;;;;5.60;1.27;;;8.50;99.90;;;7.91;100.00;97288.00;5003257;28;20041;-39
2022/09/18 05:15:43;;;;;;;2.72;1.30;;;8.60;99.90;;;7.75;100.00;97269.19;5002570;28;20038;-39
2022/09/18 05:18:11;;;;;;;4.68;1.30;;;8.60;99.90;;;7.94;100.00;97296.66;5000850;28;20033;-39
2022/09/18 05:20:37;;;;;;;6.45;1.40;;;8.60;99.90;;;7.94;100.00;97294.03;4999644;28;20128;-39
2022/09/18 05:23:03;;;;;;;1.55;1.13;;;8.60;99.90;;;7.90;100.00;97288.94;4999306;28;21311;-38
2022/09/18 05:25:29;;;;;;;4.13;1.70;;;8.60;99.90;;;7.90;100.00;97292.41;5002284;28;20148;-39
2022/09/18 05:27:58;;;;;;;3.03;1.50;;;8.60;99.90;;;7.95;100.00;97302.75;5000784;28;20033;-39
2022/09/18 05:30:25;;;;;;;2.00;1.40;;;8.60;99.90;;;7.94;100.00;97306.31;5002484;28;20041;-39
2022/09/18 05:33:00;;;;;;;1.98;1.25;;;8.60;99.90;;;7.92;100.00;97297.63;5006752;28;20034;-38
2022/09/18 05:35:29;;;;;;;4.00;1.38;;;8.60;99.90;;;7.98;100.00;97302.69;5013889;28;20064;-38
2022/09/18 05:37:55;;;;;;;2.17;1.23;;;8.70;99.90;;;8.00;100.00;97307.00;5001460;28;20033;-39
2022/09/18 05:40:24;;;;;;;1.65;1.17;;;8.70;99.90;;;8.01;100.00;97299.97;5000008;28;20431;-39
2022/09/18 05:42:54;;;;;;;4.45;1.38;;;8.70;99.90;;;8.02;100.00;97315.69;5002950;28;20022;-38
2022/09/18 05:45:20;;;;;;;3.10;1.40;;;8.70;99.90;;;8.05;100.00;97314.75;5001129;28;20229;-39
2022/09/18 05:47:58;;;;;;;2.20;1.50;;;8.70;99.90;;;8.08;100.00;97325.16;5003770;28;20029;-38
2022/09/18 05:50:26;;;;;;;2.45;1.30;;;8.70;99.90;;;8.10;100.00;97320.72;5001509;28;20126;-38
2022/09/18 05:53:13;;;;;;;4.47;1.60;;;8.70;99.90;;;8.11;100.00;97326.84;4994003;28;20033;-39
2022/09/18 05:55:39;;;;;;;3.45;1.40;;;8.80;99.90;;;8.05;100.00;97317.38;4994766;28;20061;-39
2022/09/18 05:58:09;;;;;;;4.05;1.30;;;8.70;99.90;;;8.10;100.00;97320.72;5003495;28;20834;-38
2022/09/18 06:00:35;;;;;;;2.30;1.20;;;8.80;99.90;;;8.13;100.00;97325.03;5014121;28;23365;-39
2022/09/18 06:03:11;;;;;;;2.85;1.45;;;8.80;99.90;;;8.15;100.00;97326.72;5006457;28;20033;-38
2022/09/18 06:05:38;;;;;;;4.63;1.55;;;8.80;99.90;;;8.14;100.00;97311.84;4997502;28;20512;-38
2022/09/18 06:08:10;;;;;;;4.70;1.40;;;8.80;99.90;;;8.20;100.00;97324.81;4993708;28;20034;-39
2022/09/18 06:10:39;;;;;;;3.92;1.33;;;8.80;99.90;;;8.20;100.00;97316.06;5002061;28;20075;-38
2022/09/18 06:13:11;;;;;;;3.00;1.25;;;8.90;99.90;;;8.26;100.00;97333.44;5018008;28;20044;-38
2022/09/18 06:15:38;;;;;;;3.03;1.60;;;8.90;99.90;;;8.26;100.00;97328.19;5004452;28;20073;-38
2022/09/18 06:18:07;;;;;;;3.17;1.50;;;8.90;99.90;;;8.26;100.00;97323.78;4993764;28;20029;-39
2022/09/18 06:20:33;;;;;;;3.88;1.27;;;8.90;99.90;;;8.32;100.00;97330.63;4997710;28;20035;-39
2022/09/18 06:23:00;;;;;;;4.47;1.30;;;9.00;99.90;;;8.33;100.00;97329.72;4996761;28;20030;-39
2022/09/18 06:25:30;;;;;;;3.38;1.42;;;9.00;99.90;;;8.32;100.00;97336.72;4997257;28;20038;-39
2022/09/18 06:27:57;;;;;;;3.05;1.25;;;9.00;99.90;;;8.37;100.00;97344.50;4998150;28;20033;-38
2022/09/18 06:30:29;;;;;;;2.75;1.35;;;9.00;99.90;;;8.36;100.00;97343.63;5000935;28;20124;-39
2022/09/18 06:33:00;;;;;;;2.55;1.30;;;9.00;99.90;;;8.39;100.00;97342.69;5003118;28;20437;-39
2022/09/18 06:35:26;;;;;;;2.08;1.17;;;9.00;99.90;;;8.39;100.00;97347.94;4998043;28;20121;-39
2022/09/18 06:37:52;;;;;;;3.22;1.55;;;9.00;99.90;;;8.36;100.00;97335.75;5002530;28;20413;-39
2022/09/18 06:40:18;;;;;;;5.22;1.42;;;9.10;99.90;;;8.43;100.00;97344.34;4999047;28;20033;-38
2022/09/18 06:42:43;;;;;;;2.53;1.50;;;9.10;99.90;;;8.45;100.00;97347.78;5005332;28;20030;-38
2022/09/18 06:45:09;;;;;;;4.13;1.80;;;9.10;99.90;;;8.49;100.00;97341.53;5004441;28;20045;-38
2022/09/18 06:47:35;;;;;;;4.22;1.60;;;9.10;99.90;;;8.52;100.00;97337.94;5003673;28;20033;-39
2022/09/18 06:50:01;;;;;;;2.03;1.40;;;9.20;99.90;;;8.55;100.00;97343.97;5004285;28;20067;-39
2022/09/18 06:52:27;;;;;;;2.88;1.35;;;9.20;99.90;;;8.61;100.00;97337.66;4999766;28;20756;-39
2022/09/18 06:54:52;;;;;;;4.20;1.52;;;9.20;99.90;;;8.62;100.00;97320.16;5014618;28;20487;-38
2022/09/18 06:57:18;;;;;;;3.30;1.60;;;9.30;99.90;;;8.68;100.00;97338.34;5002675;28;20515;-39
2022/09/18 06:59:44;;;;;;;2.38;1.40;;;9.30;99.90;;;8.72;100.00;97329.47;5003050;28;20033;-38
2022/09/18 07:02:13;;;;;;;2.63;1.48;;;9.30;99.90;;;8.69;100.00;97324.31;5000254;28;20399;-38
2022/09/18 07:04:40;;;;;;;3.75;1.70;;;9.30;99.90;;;8.77;100.00;97341.59;4999476;28;20033;-38
2022/09/18 07:07:08;;;;;;;6.43;1.70;;;9.40;99.90;;;8.70;100.00;97311.09;4999905;28;20331;-39
2022/09/18 07:09:34;;;;;;;3.92;1.27;;;9.50;99.90;;;8.98;100.00;97340.03;4989677;28;20041;-39
2022/09/18 07:12:00;;;;;;;2.65;1.50;;;9.50;99.90;;;9.13;100.00;97335.19;5002629;28;20036;-39
2022/09/18 07:14:26;;;;;;;4.80;1.90;;;9.70;99.90;;;9.15;100.00;97334.25;5005227;28;20112;-39
2022/09/18 07:16:51;;;;;;;2.75;1.52;;;9.80;99.90;;;9.21;100.00;97330.56;4994785;28;20041;-39
2022/09/18 07:19:17;;;;;;;3.75;1.30;;;9.80;99.90;;;9.27;100.00;97326.84;5024699;22;20517;-36
2022/09/18 07:21:43;;;;;;;5.57;1.50;;;9.90;99.90;;;9.28;100.00;97331.22;5035523;28;20505;-37
2022/09/18 07:24:08;;;;;;;3.92;1.40;;;9.90;99.90;;;9.26;100.00;97326.00;5023454;28;20033;-37
2022/09/18 07:26:34;;;;;;;5.07;1.40;;;9.90;99.90;;;9.20;100.00;97320.94;5039397;28;20536;-37
2022/09/18 07:29:00;;;;;;;3.25;1.30;;;9.90;99.90;;;9.22;100.00;97324.38;5040562;28;20152;-37
2022/09/18 07:31:26;;;;;;;2.58;1.35;;;9.90;99.90;;;9.28;100.00;97336.47;5043599;28;20055;-37
2022/09/18 07:33:53;;;;;;;2.17;1.10;;;9.90;99.90;;;9.31;100.00;97341.63;5047933;28;22434;-37
2022/09/18 07:36:20;;;;;;;4.13;1.40;;;10.00;99.90;;;9.35;100.00;97340.63;5046181;28;20450;-37
2022/09/18 07:38:50;;;;;;;3.08;1.13;;;10.00;99.90;;;9.23;100.00;97320.84;5048252;28;20032;-37
2022/09/18 07:41:16;;;;;;;1.83;1.17;;;10.10;99.90;;;9.48;100.00;97341.09;5044012;28;20035;-37
2022/09/18 07:43:42;;;;;;;3.15;1.52;;;10.20;99.90;;;9.63;100.00;97342.34;5053522;28;20339;-37
2022/09/18 07:46:08;;;;;;;2.90;1.27;;;10.30;99.90;;;9.71;100.00;97343.78;5044635;28;20509;-37
2022/09/18 07:48:34;;;;;;;3.38;1.00;;;10.40;99.90;;;9.65;100.00;97349.25;5043751;28;20067;-39
2022/09/18 07:51:02;;;;;;;3.53;1.20;;;10.40;99.90;;;9.70;100.00;97357.84;5043743;28;20078;-40
2022/09/18 07:53:28;;;;;;;4.10;1.20;;;10.40;99.90;;;9.71;100.00;97356.97;5045810;28;20035;-40
2022/09/18 07:55:56;;;;;;;3.83;1.30;;;10.50;99.90;;;9.77;100.00;97358.53;5046819;28;20032;-40
2022/09/18 07:58:22;;;;;;;5.45;1.30;;;10.50;99.90;;;9.84;100.00;97353.91;5048369;28;20322;-40
2022/09/18 08:00:49;;;;;;;2.47;1.20;;;10.60;99.90;;;10.05;100.00;97360.19;5047595;28;20609;-40
2022/09/18 08:03:14;;;;;;;3.10;1.20;;;10.80;99.90;;;10.08;100.00;97354.81;5044216;28;20069;-39
2022/09/18 08:05:40;;;;;;;2.72;0.93;;;10.90;99.90;;;10.04;100.00;97330.34;5043796;28;20033;-40
2022/09/18 08:08:12;;;;;;;4.25;1.17;;;11.00;99.90;;;10.44;100.00;97355.28;5046972;28;20044;-40
2022/09/18 08:10:39;;;;;;;3.40;1.20;;;11.10;99.90;;;10.58;100.00;97360.03;5045703;28;20078;-40
2022/09/18 08:13:06;;;;;;;3.08;1.17;;;11.30;99.90;;;10.65;100.00;97366.78;5046413;28;20025;-40
2022/09/18 08:15:33;;;;;;;3.85;1.00;;;11.40;99.90;;;10.62;100.00;97374.84;5051576;28;20556;-39
2022/09/18 08:17:59;;;;;;;3.83;1.30;;;11.40;99.90;;;10.65;100.00;97374.72;5043303;28;20489;-39
2022/09/18 08:20:25;;;;;;;4.00;1.13;;;11.40;99.90;;;10.72;100.00;97372.72;5041455;28;20036;-40
2022/09/18 08:22:51;;;;;;;1.38;0.80;;;11.40;99.90;;;10.59;100.00;97368.81;5048695;28;20055;-41
2022/09/18 08:25:17;;;;;;;3.45;1.00;;;11.40;99.90;;;10.55;100.00;97361.94;5044656;28;20047;-40
2022/09/18 08:27:43;;;;;;;3.00;1.10;;;11.30;99.90;;;10.46;100.00;97376.31;5040779;28;20041;-40
2022/09/18 08:30:12;;;;;;;2.10;1.00;;;11.30;99.90;;;10.58;100.00;97386.41;5034759;28;20120;-39
2022/09/18 08:32:38;;;;;;;4.60;1.00;;;11.40;99.90;;;10.85;100.00;97375.72;5045859;28;20078;-39
2022/09/18 08:35:05;;;;;;;3.00;1.02;;;11.50;99.90;;;10.88;100.00;97389.66;5043352;28;20033;-39
2022/09/18 08:37:32;;;;;;;4.93;1.17;;;11.60;99.90;;;10.95;100.00;97381.53;5043317;28;20494;-40
2022/09/18 08:39:57;;;;;;;6.07;1.23;;;11.70;99.90;;;10.83;100.00;97388.13;5047784;28;20036;-40
2022/09/18 08:42:55;;;;;;;3.63;1.10;;;11.70;99.90;;;10.92;100.00;97381.66;5037062;28;20043;-39
2022/09/18 08:45:51;;;;;;;2.45;1.00;;;11.70;99.90;;;10.98;100.00;97387.56;5045271;28;20083;-40
2022/09/18 08:48:27;;;;;;;2.58;1.13;;;11.70;99.90;;;11.19;100.00;97382.34;5038655;28;20393;-39
2022/09/18 08:51:00;;;;;;;3.17;1.17;;;11.90;99.90;;;11.41;100.00;97391.13;5034850;28;20158;-40
2022/09/18 08:53:37;;;;;;;1.98;1.25;;;12.10;99.90;;;11.32;100.00;97391.47;5040977;28;20025;-40
2022/09/18 08:56:05;;;;;;;3.35;1.30;;;12.10;99.90;;;11.40;100.00;97386.75;5045296;28;20478;-40
2022/09/18 08:58:52;;;;;;;4.90;1.63;;;12.10;99.90;;;11.43;100.00;97389.28;5028402;28;20063;-40
2022/09/18 09:01:20;;;;;;;2.47;1.20;;;12.20;99.90;;;11.35;100.00;97387.88;5047022;28;21107;-41
2022/09/18 09:04:31;;;;;;;3.33;1.10;;;12.20;99.90;;;11.18;100.00;97393.81;5026684;28;20028;-41
2022/09/18 09:07:10;;;;;;;1.83;1.10;;;12.00;99.90;;;10.99;100.00;97393.69;4992714;28;20041;-41
2022/09/18 09:10:03;;;;;;;4.63;1.30;;;11.70;99.90;;;10.88;100.00;97394.94;5030995;28;20028;-38
2022/09/18 09:13:34;;;;;;;3.55;1.33;;;11.60;99.90;;;10.67;100.00;97387.84;5049591;28;24303;-38
2022/09/18 09:16:17;;;;;;;4.65;1.45;;;11.40;99.90;;;10.63;100.00;97397.66;5040161;28;20052;-40
2022/09/18 09:19:01;;;;;;;2.28;1.35;;;11.30;99.90;;;10.64;100.00;97387.94;5027465;28;20043;-39
2022/09/18 09:21:54;;;;;;;4.20;1.45;;;11.30;99.90;;;10.64;100.00;97391.47;5025096;28;20044;-44
2022/09/18 09:24:30;;;;;;;2.40;1.23;;;11.30;99.90;;;10.73;100.00;97395.53;5030311;28;20374;-40
2022/09/18 09:27:11;;;;;;;1.23;0.90;;;11.40;99.90;;;10.91;100.00;97387.81;5046892;28;20059;-40
2022/09/18 09:29:40;;;;;;;4.13;1.55;;;11.60;99.90;;;10.95;100.00;97390.28;5031723;28;20028;-41
2022/09/18 09:32:24;;;;;;;3.65;1.42;;;11.70;99.90;;;11.06;100.00;97390.72;5046959;28;20040;-40
2022/09/18 09:35:15;;;;;;;2.88;1.10;;;11.70;99.90;;;11.15;100.00;97389.50;5024565;28;20052;-41
2022/09/18 09:37:44;;;;;;;6.85;1.33;;;11.80;99.90;;;11.17;100.00;97392.09;5044566;28;20054;-41
2022/09/18 09:40:37;;;;;;;7.28;1.35;;;11.90;99.90;;;11.06;100.00;97390.72;5031577;28;20021;-42
2022/09/18 09:43:26;;;;;;;7.20;1.35;;;11.80;99.90;;;11.28;100.00;97390.75;5034712;28;20123;-41
2022/09/18 09:45:58;;;;;;;3.17;1.10;;;11.90;99.90;;;11.35;100.00;97364.97;5032198;28;20036;-41
2022/09/18 09:49:00;;;;;;;3.25;1.27;;;12.10;99.90;;;11.66;100.00;97376.91;5045659;28;20035;-43
2022/09/18 09:52:21;;;;;;;6.13;1.40;;;12.40;99.90;;;11.75;100.00;97371.22;5013306;28;20044;-42
2022/09/18 09:55:05;;;;;;;4.72;1.13;;;12.50;99.90;;;12.00;100.00;97375.50;5020157;28;20128;-42
2022/09/18 09:57:54;;;;;;;2.65;0.93;;;12.60;99.90;;;12.12;100.00;97374.97;5042907;28;20041;-42
2022/09/18 10:00:20;;;;;;;2.55;1.00;;;12.80;99.90;;;12.28;100.00;97374.31;5043916;28;20060;-42
2022/09/18 10:03:05;;;;;;;2.17;0.95;;;13.00;99.90;;;12.51;100.00;97376.78;5046146;28;20033;-42
2022/09/18 10:05:55;;;;;;;2.65;0.98;;;13.20;99.90;;;12.71;100.00;97372.38;5036243;28;20041;-43
2022/09/18 10:08:44;;;;;;;4.40;1.30;;;13.40;99.90;;;12.78;100.00;97368.53;5053134;28;20048;-43
2022/09/18 10:11:11;;;;;;;3.92;1.00;;;13.60;99.90;;;12.72;100.00;97377.59;5052994;28;20763;-42
2022/09/18 10:14:03;;;;;;;6.05;1.35;;;13.60;99.90;;;12.92;100.00;97378.44;5026656;28;20039;-43
2022/09/18 10:16:36;;;;;;;3.65;0.93;;;13.70;99.90;;;13.02;97.31;97379.75;5035260;28;20028;-45
2022/09/18 10:19:03;;;;;;;5.55;0.95;;;13.90;99.90;;;13.05;98.87;97384.06;5030062;28;20037;-39
2022/09/18 10:21:34;;;;;;;2.10;0.80;;;13.80;99.90;;;12.98;99.14;97379.03;5039134;28;21001;-39
2022/09/18 10:24:41;;;;;;;3.20;1.00;;;13.80;99.90;;;13.25;94.49;97372.50;5033025;28;20048;-41
2022/09/18 10:27:12;;;;;;;3.15;0.93;;;13.90;99.90;;;13.06;89.30;97376.00;5046577;28;20233;-41
2022/09/18 10:29:39;;;;;;;4.95;1.00;;;13.90;99.90;;;13.12;86.68;97372.25;5034312;28;20530;-41
2022/09/18 10:32:05;;;;;;;3.65;0.77;;;14.00;99.90;;;13.11;92.63;97374.00;5050076;28;20032;-41
2022/09/18 10:34:47;;;;;;;3.63;1.00;;;14.00;99.90;;;13.29;92.87;97372.25;5035737;28;20020;-41
2022/09/18 10:37:28;;;;;;;4.03;1.00;;;14.10;99.90;;;13.32;91.43;97372.16;5055685;28;20397;-41
2022/09/18 10:39:58;;;;;;;4.70;1.08;;;14.20;99.90;;;13.48;95.63;97366.13;5053826;28;20048;-41
2022/09/18 10:42:27;;;;;;;2.85;0.75;;;14.30;99.90;;;13.54;90.55;97366.66;5046926;28;20403;-41
2022/09/18 10:44:57;;;;;;;3.50;0.80;;;14.30;99.90;;;13.53;86.43;97361.44;5053176;28;20029;-40